sensor_id;sensor_type;location;lat;lon;timestamp;temperature;humidity
70151;DHT22;57517;43.562;19.540;2024-03-29T00:00:58;384.70;1510.40
70151;DHT22;57517;43.562;19.540;2024-03-29T00:03:25;384.80;1510.40
70151;DHT22;57517;43.562;19.540;2024-03-29T00:05:51;409.60;1536.00
70151;DHT22;57517;43.562;19.540;2024-03-29T00:08:17;409.60;1510.40
70151;DHT22;57517;43.562;19.540;2024-03-29T00:10:42;409.70;1510.40
70151;DHT22;57517;43.562;19.540;2024-03-29T00:13:08;409.80;1510.40
70151;DHT22;57517;43.562;19.540;2024-03-29T00:15:34;409.90;1484.80
70151;DHT22;57517;43.562;19.540;2024-03-29T00:18:00;410.00;1484.80
70151;DHT22;57517;43.562;19.540;2024-03-29T00:20:26;410.00;1484.80
70151;DHT22;57517;43.562;19.540;2024-03-29T00:22:54;410.10;1484.80
70151;DHT22;57517;43.562;19.540;2024-03-29T00:25:19;410.20;1484.80
70151;DHT22;57517;43.562;19.540;2024-03-29T00:27:45;410.30;1484.80
70151;DHT22;57517;43.562;19.540;2024-03-29T00:30:11;410.30;1484.80
70151;DHT22;57517;43.562;19.540;2024-03-29T00:32:37;410.30;1484.80
70151;DHT22;57517;43.562;19.540;2024-03-29T00:35:03;410.30;1484.80
70151;DHT22;57517;43.562;19.540;2024-03-29T00:37:29;410.30;1484.80
70151;DHT22;57517;43.562;19.540;2024-03-29T00:39:54;410.10;1510.40
70151;DHT22;57517;43.562;19.540;2024-03-29T00:42:20;410.20;1484.80
70151;DHT22;57517;43.562;19.540;2024-03-29T00:44:46;410.30;1484.80
70151;DHT22;57517;43.562;19.540;2024-03-29T00:47:12;410.30;1484.80
70151;DHT22;57517;43.562;19.540;2024-03-29T00:49:41;410.30;1484.80
70151;DHT22;57517;43.562;19.540;2024-03-29T00:52:07;410.40;1484.80
70151;DHT22;57517;43.562;19.540;2024-03-29T00:54:33;410.50;1459.20
70151;DHT22;57517;43.562;19.540;2024-03-29T00:56:59;410.40;1484.80
70151;DHT22;57517;43.562;19.540;2024-03-29T00:59:25;410.30;1484.80
70151;DHT22;57517;43.562;19.540;2024-03-29T01:01:51;410.30;1510.40
70151;DHT22;57517;43.562;19.540;2024-03-29T01:04:17;410.20;1510.40
70151;DHT22;57517;43.562;19.540;2024-03-29T01:06:43;410.30;1484.80
70151;DHT22;57517;43.562;19.540;2024-03-29T01:09:09;410.30;1484.80
70151;DHT22;57517;43.562;19.540;2024-03-29T01:11:38;410.30;1484.80
70151;DHT22;57517;43.562;19.540;2024-03-29T01:14:04;410.30;1484.80
70151;DHT22;57517;43.562;19.540;2024-03-29T01:16:31;410.30;1484.80
70151;DHT22;57517;43.562;19.540;2024-03-29T01:18:58;410.30;1484.80
70151;DHT22;57517;43.562;19.540;2024-03-29T01:21:24;410.10;1510.40
70151;DHT22;57517;43.562;19.540;2024-03-29T01:23:50;410.10;1510.40
70151;DHT22;57517;43.562;19.540;2024-03-29T01:26:15;410.20;1484.80
70151;DHT22;57517;43.562;19.540;2024-03-29T01:28:43;410.10;1510.40
70151;DHT22;57517;43.562;19.540;2024-03-29T01:31:09;410.00;1510.40
70151;DHT22;57517;43.562;19.540;2024-03-29T01:33:35;410.00;1536.00
70151;DHT22;57517;43.562;19.540;2024-03-29T01:36:07;409.80;1561.60
70151;DHT22;57517;43.562;19.540;2024-03-29T01:38:33;409.70;1561.60
70151;DHT22;57517;43.562;19.540;2024-03-29T01:40:59;409.60;1561.60
70151;DHT22;57517;43.562;19.540;2024-03-29T01:43:25;409.70;1561.60
70151;DHT22;57517;43.562;19.540;2024-03-29T01:45:54;409.60;1561.60
70151;DHT22;57517;43.562;19.540;2024-03-29T01:48:25;409.70;1561.60
70151;DHT22;57517;43.562;19.540;2024-03-29T01:50:56;409.70;1561.60
70151;DHT22;57517;43.562;19.540;2024-03-29T01:53:22;384.90;1561.60
70151;DHT22;57517;43.562;19.540;2024-03-29T01:55:50;384.90;1561.60
70151;DHT22;57517;43.562;19.540;2024-03-29T01:58:16;384.90;1587.20
70151;DHT22;57517;43.562;19.540;2024-03-29T02:00:52;384.90;1561.60
70151;DHT22;57517;43.562;19.540;2024-03-29T02:03:22;384.90;1561.60
70151;DHT22;57517;43.562;19.540;2024-03-29T02:05:49;384.90;1561.60
70151;DHT22;57517;43.562;19.540;2024-03-29T02:08:15;384.90;1561.60
70151;DHT22;57517;43.562;19.540;2024-03-29T02:10:42;384.80;1587.20
70151;DHT22;57517;43.562;19.540;2024-03-29T02:13:08;384.70;1587.20
70151;DHT22;57517;43.562;19.540;2024-03-29T02:15:34;384.70;1587.20
70151;DHT22;57517;43.562;19.540;2024-03-29T02:18:00;384.70;1587.20
70151;DHT22;57517;43.562;19.540;2024-03-29T02:20:26;384.60;1612.80
70151;DHT22;57517;43.562;19.540;2024-03-29T02:23:00;384.50;1612.80
70151;DHT22;57517;43.562;19.540;2024-03-29T02:25:28;384.50;1612.80
70151;DHT22;57517;43.562;19.540;2024-03-29T02:27:54;384.60;1612.80
70151;DHT22;57517;43.562;19.540;2024-03-29T02:30:20;384.40;1612.80
70151;DHT22;57517;43.562;19.540;2024-03-29T02:32:46;384.20;1638.40
70151;DHT22;57517;43.562;19.540;2024-03-29T02:35:12;384.20;1638.40
70151;DHT22;57517;43.562;19.540;2024-03-29T02:37:38;384.10;1664.00
70151;DHT22;57517;43.562;19.540;2024-03-29T02:40:05;384.10;1664.00
70151;DHT22;57517;43.562;19.540;2024-03-29T02:42:31;359.30;1689.60
70151;DHT22;57517;43.562;19.540;2024-03-29T02:44:58;384.00;1664.00
70151;DHT22;57517;43.562;19.540;2024-03-29T02:47:24;359.30;1689.60
70151;DHT22;57517;43.562;19.540;2024-03-29T02:49:49;359.20;1715.20
70151;DHT22;57517;43.562;19.540;2024-03-29T02:52:15;359.10;1715.20
70151;DHT22;57517;43.562;19.540;2024-03-29T02:54:41;359.10;1715.20
70151;DHT22;57517;43.562;19.540;2024-03-29T02:57:07;359.20;1715.20
70151;DHT22;57517;43.562;19.540;2024-03-29T02:59:33;359.00;1740.80
70151;DHT22;57517;43.562;19.540;2024-03-29T03:01:59;359.00;1740.80
70151;DHT22;57517;43.562;19.540;2024-03-29T03:04:25;359.10;1715.20
70151;DHT22;57517;43.562;19.540;2024-03-29T03:06:51;359.00;1740.80
70151;DHT22;57517;43.562;19.540;2024-03-29T03:09:16;359.00;1740.80
70151;DHT22;57517;43.562;19.540;2024-03-29T03:12:01;358.80;1792.00
70151;DHT22;57517;43.562;19.540;2024-03-29T03:14:27;358.80;1766.40
70151;DHT22;57517;43.562;19.540;2024-03-29T03:16:53;358.80;1792.00
70151;DHT22;57517;43.562;19.540;2024-03-29T03:19:18;358.70;1766.40
70151;DHT22;57517;43.562;19.540;2024-03-29T03:21:44;358.80;1766.40
70151;DHT22;57517;43.562;19.540;2024-03-29T03:24:10;358.70;1792.00
70151;DHT22;57517;43.562;19.540;2024-03-29T03:26:37;358.50;1792.00
70151;DHT22;57517;43.562;19.540;2024-03-29T03:29:04;358.50;1792.00
70151;DHT22;57517;43.562;19.540;2024-03-29T03:31:29;358.50;1817.60
70151;DHT22;57517;43.562;19.540;2024-03-29T03:33:55;358.40;1817.60
70151;DHT22;57517;43.562;19.540;2024-03-29T03:36:21;333.70;1817.60
70151;DHT22;57517;43.562;19.540;2024-03-29T03:38:47;333.60;1843.20
70151;DHT22;57517;43.562;19.540;2024-03-29T03:41:12;333.60;1817.60
70151;DHT22;57517;43.562;19.540;2024-03-29T03:43:38;333.70;1817.60
70151;DHT22;57517;43.562;19.540;2024-03-29T03:46:04;358.40;1817.60
70151;DHT22;57517;43.562;19.540;2024-03-29T03:48:31;358.40;1817.60
70151;DHT22;57517;43.562;19.540;2024-03-29T03:50:57;333.70;1817.60
70151;DHT22;57517;43.562;19.540;2024-03-29T03:53:23;358.40;1817.60
70151;DHT22;57517;43.562;19.540;2024-03-29T03:55:49;333.60;1843.20
70151;DHT22;57517;43.562;19.540;2024-03-29T03:58:14;333.70;1817.60
70151;DHT22;57517;43.562;19.540;2024-03-29T04:00:41;333.70;1817.60
70151;DHT22;57517;43.562;19.540;2024-03-29T04:03:06;333.70;1817.60
70151;DHT22;57517;43.562;19.540;2024-03-29T04:05:32;333.60;1868.80
70151;DHT22;57517;43.562;19.540;2024-03-29T04:07:58;333.60;1868.80
70151;DHT22;57517;43.562;19.540;2024-03-29T04:10:25;333.30;1920.00
70151;DHT22;57517;43.562;19.540;2024-03-29T04:12:51;333.00;1945.60
70151;DHT22;57517;43.562;19.540;2024-03-29T04:15:17;332.80;1996.80
70151;DHT22;57517;43.562;19.540;2024-03-29T04:17:42;332.80;1996.80
70151;DHT22;57517;43.562;19.540;2024-03-29T04:20:09;332.80;1996.80
70151;DHT22;57517;43.562;19.540;2024-03-29T04:22:35;333.00;1971.20
70151;DHT22;57517;43.562;19.540;2024-03-29T04:25:00;333.00;1971.20
70151;DHT22;57517;43.562;19.540;2024-03-29T04:27:26;332.90;1971.20
70151;DHT22;57517;43.562;19.540;2024-03-29T04:29:53;332.90;1996.80
70151;DHT22;57517;43.562;19.540;2024-03-29T04:32:19;333.00;1971.20
70151;DHT22;57517;43.562;19.540;2024-03-29T04:34:49;333.20;1971.20
70151;DHT22;57517;43.562;19.540;2024-03-29T04:37:15;333.30;1945.60
70151;DHT22;57517;43.562;19.540;2024-03-29T04:39:42;333.50;1894.40
70151;DHT22;57517;43.562;19.540;2024-03-29T04:42:08;333.60;1894.40
70151;DHT22;57517;43.562;19.540;2024-03-29T04:44:34;333.50;1920.00
70151;DHT22;57517;43.562;19.540;2024-03-29T04:47:00;333.40;1920.00
70151;DHT22;57517;43.562;19.540;2024-03-29T04:49:27;333.40;1945.60
70151;DHT22;57517;43.562;19.540;2024-03-29T04:52:07;333.60;1894.40
70151;DHT22;57517;43.562;19.540;2024-03-29T04:54:33;333.70;1868.80
70151;DHT22;57517;43.562;19.540;2024-03-29T04:57:00;333.60;1894.40
70151;DHT22;57517;43.562;19.540;2024-03-29T04:59:32;333.70;1894.40
70151;DHT22;57517;43.562;19.540;2024-03-29T05:01:59;333.70;1920.00
70151;DHT22;57517;43.562;19.540;2024-03-29T05:04:24;333.70;1920.00
70151;DHT22;57517;43.562;19.540;2024-03-29T05:09:19;333.60;1894.40
70151;DHT22;57517;43.562;19.540;2024-03-29T05:11:45;333.70;1894.40
70151;DHT22;57517;43.562;19.540;2024-03-29T05:14:13;333.70;1868.80
70151;DHT22;57517;43.562;19.540;2024-03-29T05:16:40;358.60;1843.20
70151;DHT22;57517;43.562;19.540;2024-03-29T05:19:06;358.70;1843.20
70151;DHT22;57517;43.562;19.540;2024-03-29T05:21:32;358.80;1817.60
70151;DHT22;57517;43.562;19.540;2024-03-29T05:23:58;358.70;1817.60
70151;DHT22;57517;43.562;19.540;2024-03-29T05:26:24;358.60;1971.20
70151;DHT22;57517;43.562;19.540;2024-03-29T05:28:50;358.80;1920.00
70151;DHT22;57517;43.562;19.540;2024-03-29T05:31:15;359.00;1894.40
70151;DHT22;57517;43.562;19.540;2024-03-29T05:33:41;359.00;1894.40
70151;DHT22;57517;43.562;19.540;2024-03-29T05:36:07;359.10;1868.80
70151;DHT22;57517;43.562;19.540;2024-03-29T05:38:36;359.00;1843.20
70151;DHT22;57517;43.562;19.540;2024-03-29T05:41:03;359.10;1817.60
70151;DHT22;57517;43.562;19.540;2024-03-29T05:43:29;384.40;1766.40
70151;DHT22;57517;43.562;19.540;2024-03-29T05:45:55;384.70;1715.20
70151;DHT22;57517;43.562;19.540;2024-03-29T05:48:20;409.60;1689.60
70151;DHT22;57517;43.562;19.540;2024-03-29T05:50:46;410.50;1612.80
70151;DHT22;57517;43.562;19.540;2024-03-29T05:53:12;435.30;1587.20
70151;DHT22;57517;43.562;19.540;2024-03-29T05:55:38;461.00;1510.40
70151;DHT22;57517;43.562;19.540;2024-03-29T05:58:04;461.40;1459.20
70151;DHT22;57517;43.562;19.540;2024-03-29T06:00:32;512.20;1356.80
70151;DHT22;57517;43.562;19.540;2024-03-29T06:03:01;537.80;1305.60
70151;DHT22;57517;43.562;19.540;2024-03-29T06:05:30;563.20;1254.40
70151;DHT22;57517;43.562;19.540;2024-03-29T06:07:56;563.80;1228.80
70151;DHT22;57517;43.562;19.540;2024-03-29T06:10:22;589.20;1177.60
70151;DHT22;57517;43.562;19.540;2024-03-29T06:12:48;614.80;1100.80
70151;DHT22;57517;43.562;19.540;2024-03-29T06:15:14;615.30;1049.60
70151;DHT22;57517;43.562;19.540;2024-03-29T06:17:58;640.90;998.40
70151;DHT22;57517;43.562;19.540;2024-03-29T06:20:24;640.70;998.40
70151;DHT22;57517;43.562;19.540;2024-03-29T06:22:50;640.90;998.40
70151;DHT22;57517;43.562;19.540;2024-03-29T06:25:16;666.00;998.40
70151;DHT22;57517;43.562;19.540;2024-03-29T06:27:42;691.70;921.60
70151;DHT22;57517;43.562;19.540;2024-03-29T06:30:14;691.40;972.80
70151;DHT22;57517;43.562;19.540;2024-03-29T06:32:40;692.00;921.60
70151;DHT22;57517;43.562;19.540;2024-03-29T06:35:06;692.10;921.60
70151;DHT22;57517;43.562;19.540;2024-03-29T06:37:32;717.70;921.60
70151;DHT22;57517;43.562;19.540;2024-03-29T06:39:58;743.30;870.40
70151;DHT22;57517;43.562;19.540;2024-03-29T06:42:24;768.90;844.80
70151;DHT22;57517;43.562;19.540;2024-03-29T06:44:49;793.80;819.20
70151;DHT22;57517;43.562;19.540;2024-03-29T06:47:15;794.00;819.20
70151;DHT22;57517;43.562;19.540;2024-03-29T06:49:41;794.20;819.20
70151;DHT22;57517;43.562;19.540;2024-03-29T06:52:07;794.40;793.60
70151;DHT22;57517;43.562;19.540;2024-03-29T06:54:33;819.60;793.60
70151;DHT22;57517;43.562;19.540;2024-03-29T06:56:59;820.00;742.40
70151;DHT22;57517;43.562;19.540;2024-03-29T06:59:26;845.50;742.40
70151;DHT22;57517;43.562;19.540;2024-03-29T07:01:52;870.50;742.40
70151;DHT22;57517;43.562;19.540;2024-03-29T07:04:22;870.90;716.80
70151;DHT22;57517;43.562;19.540;2024-03-29T07:06:49;871.20;691.20
70151;DHT22;57517;43.562;19.540;2024-03-29T07:09:19;896.40;691.20
70151;DHT22;57517;43.562;19.540;2024-03-29T07:36:08;922.10;640.00
70151;DHT22;57517;43.562;19.540;2024-03-29T07:38:37;921.60;640.00
70151;DHT22;57517;43.562;19.540;2024-03-29T07:41:03;921.80;640.00
70151;DHT22;57517;43.562;19.540;2024-03-29T07:43:51;947.20;614.40
70151;DHT22;57517;43.562;19.540;2024-03-29T07:46:17;896.60;640.00
70151;DHT22;57517;43.562;19.540;2024-03-29T07:48:43;947.90;588.80
70151;DHT22;57517;43.562;19.540;2024-03-29T07:51:09;999.30;537.60
70151;DHT22;57517;43.562;19.540;2024-03-29T07:53:35;999.20;537.60
70151;DHT22;57517;43.562;19.540;2024-03-29T08:03:19;1050.20;537.60
70151;DHT22;57517;43.562;19.540;2024-03-29T08:05:57;1050.30;537.60
70151;DHT22;57517;43.562;19.540;2024-03-29T08:55:05;1178.10;435.20
70151;DHT22;57517;43.562;19.540;2024-03-29T08:57:31;1152.30;460.80
70151;DHT22;57517;43.562;19.540;2024-03-29T09:21:58;921.70;640.00
70151;DHT22;57517;43.562;19.540;2024-03-29T09:24:24;871.00;640.00
70151;DHT22;57517;43.562;19.540;2024-03-29T09:26:52;820.00;665.60
70151;DHT22;57517;43.562;19.540;2024-03-29T09:29:18;819.70;665.60
70151;DHT22;57517;43.562;19.540;2024-03-29T09:31:46;794.40;691.20
70151;DHT22;57517;43.562;19.540;2024-03-29T09:36:38;768.80;716.80
70151;DHT22;57517;43.562;19.540;2024-03-29T09:39:04;743.30;742.40
70151;DHT22;57517;43.562;19.540;2024-03-29T09:41:31;743.30;742.40
70151;DHT22;57517;43.562;19.540;2024-03-29T09:44:03;768.10;742.40
70151;DHT22;57517;43.562;19.540;2024-03-29T09:46:32;743.30;768.00
70151;DHT22;57517;43.562;19.540;2024-03-29T09:48:59;743.20;768.00
70151;DHT22;57517;43.562;19.540;2024-03-29T09:51:26;742.60;793.60
70151;DHT22;57517;43.562;19.540;2024-03-29T09:53:53;717.60;768.00
70151;DHT22;57517;43.562;19.540;2024-03-29T09:56:21;717.60;768.00
70151;DHT22;57517;43.562;19.540;2024-03-29T09:58:47;717.20;819.20
70151;DHT22;57517;43.562;19.540;2024-03-29T10:01:13;717.20;793.60
70151;DHT22;57517;43.562;19.540;2024-03-29T10:03:40;717.10;793.60
70151;DHT22;57517;43.562;19.540;2024-03-29T10:06:08;717.00;793.60
70151;DHT22;57517;43.562;19.540;2024-03-29T10:08:34;717.20;768.00
70151;DHT22;57517;43.562;19.540;2024-03-29T10:11:01;717.20;793.60
70151;DHT22;57517;43.562;19.540;2024-03-29T10:13:27;717.30;793.60
70151;DHT22;57517;43.562;19.540;2024-03-29T10:15:53;717.60;793.60
70151;DHT22;57517;43.562;19.540;2024-03-29T10:18:24;717.30;793.60
70151;DHT22;57517;43.562;19.540;2024-03-29T10:21:03;717.40;793.60
70151;DHT22;57517;43.562;19.540;2024-03-29T10:23:30;717.50;793.60
70151;DHT22;57517;43.562;19.540;2024-03-29T10:25:56;717.00;793.60
70151;DHT22;57517;43.562;19.540;2024-03-29T10:28:23;692.10;768.00
70151;DHT22;57517;43.562;19.540;2024-03-29T10:30:49;691.70;768.00
70151;DHT22;57517;43.562;19.540;2024-03-29T10:33:16;691.50;793.60
70151;DHT22;57517;43.562;19.540;2024-03-29T10:35:46;691.60;793.60
70151;DHT22;57517;43.562;19.540;2024-03-29T10:38:12;691.40;793.60
70151;DHT22;57517;43.562;19.540;2024-03-29T10:40:38;691.40;793.60
70151;DHT22;57517;43.562;19.540;2024-03-29T10:43:08;666.30;793.60
70151;DHT22;57517;43.562;19.540;2024-03-29T10:45:38;666.40;793.60
70151;DHT22;57517;43.562;19.540;2024-03-29T10:48:05;666.40;793.60
70151;DHT22;57517;43.562;19.540;2024-03-29T10:50:38;666.50;793.60
70151;DHT22;57517;43.562;19.540;2024-03-29T10:53:07;666.50;793.60
70151;DHT22;57517;43.562;19.540;2024-03-29T10:55:36;691.30;793.60
70151;DHT22;57517;43.562;19.540;2024-03-29T10:58:04;691.30;793.60
70151;DHT22;57517;43.562;19.540;2024-03-29T11:00:34;691.20;793.60
70151;DHT22;57517;43.562;19.540;2024-03-29T11:05:47;691.20;793.60
70151;DHT22;57517;43.562;19.540;2024-03-29T11:08:17;666.50;793.60
70151;DHT22;57517;43.562;19.540;2024-03-29T11:10:47;666.50;793.60
70151;DHT22;57517;43.562;19.540;2024-03-29T11:16:34;691.40;768.00
70151;DHT22;57517;43.562;19.540;2024-03-29T11:19:00;691.40;793.60
70151;DHT22;57517;43.562;19.540;2024-03-29T11:21:30;691.30;768.00
70151;DHT22;57517;43.562;19.540;2024-03-29T11:23:57;691.30;793.60
70151;DHT22;57517;43.562;19.540;2024-03-29T11:26:27;691.40;793.60
70151;DHT22;57517;43.562;19.540;2024-03-29T11:28:53;691.50;768.00
70151;DHT22;57517;43.562;19.540;2024-03-29T11:31:24;691.50;768.00
70151;DHT22;57517;43.562;19.540;2024-03-29T11:33:51;691.50;768.00
70151;DHT22;57517;43.562;19.540;2024-03-29T11:36:35;691.50;768.00
70151;DHT22;57517;43.562;19.540;2024-03-29T11:39:05;691.50;768.00
70151;DHT22;57517;43.562;19.540;2024-03-29T11:41:31;691.40;793.60
70151;DHT22;57517;43.562;19.540;2024-03-29T11:43:57;666.50;793.60
70151;DHT22;57517;43.562;19.540;2024-03-29T11:46:24;666.40;768.00
70151;DHT22;57517;43.562;19.540;2024-03-29T11:48:50;666.50;768.00
70151;DHT22;57517;43.562;19.540;2024-03-29T11:51:19;666.50;768.00
70151;DHT22;57517;43.562;19.540;2024-03-29T11:53:51;666.50;768.00
70151;DHT22;57517;43.562;19.540;2024-03-29T11:56:18;691.30;768.00
70151;DHT22;57517;43.562;19.540;2024-03-29T11:58:44;691.40;768.00
70151;DHT22;57517;43.562;19.540;2024-03-29T12:01:10;691.40;768.00
70151;DHT22;57517;43.562;19.540;2024-03-29T12:03:40;691.40;768.00
70151;DHT22;57517;43.562;19.540;2024-03-29T12:06:06;691.40;742.40
70151;DHT22;57517;43.562;19.540;2024-03-29T12:08:39;691.40;742.40
70151;DHT22;57517;43.562;19.540;2024-03-29T12:11:06;691.40;742.40
70151;DHT22;57517;43.562;19.540;2024-03-29T12:13:33;691.30;742.40
70151;DHT22;57517;43.562;19.540;2024-03-29T12:15:59;691.40;768.00
70151;DHT22;57517;43.562;19.540;2024-03-29T12:18:26;691.40;742.40
70151;DHT22;57517;43.562;19.540;2024-03-29T12:20:53;691.60;793.60
70151;DHT22;57517;43.562;19.540;2024-03-29T12:23:21;691.90;768.00
70151;DHT22;57517;43.562;19.540;2024-03-29T12:25:48;691.90;793.60
70151;DHT22;57517;43.562;19.540;2024-03-29T12:28:15;691.80;768.00
70151;DHT22;57517;43.562;19.540;2024-03-29T12:30:46;691.80;793.60
70151;DHT22;57517;43.562;19.540;2024-03-29T12:33:14;691.70;768.00
70151;DHT22;57517;43.562;19.540;2024-03-29T12:35:44;691.50;793.60
70151;DHT22;57517;43.562;19.540;2024-03-29T12:38:12;691.20;793.60
70151;DHT22;57517;43.562;19.540;2024-03-29T12:40:40;691.20;793.60
70151;DHT22;57517;43.562;19.540;2024-03-29T12:43:07;691.30;793.60
70151;DHT22;57517;43.562;19.540;2024-03-29T12:45:39;691.30;793.60
70151;DHT22;57517;43.562;19.540;2024-03-29T12:48:16;691.40;793.60
70151;DHT22;57517;43.562;19.540;2024-03-29T12:50:43;691.40;793.60
70151;DHT22;57517;43.562;19.540;2024-03-29T12:53:11;691.50;793.60
70151;DHT22;57517;43.562;19.540;2024-03-29T12:55:42;691.60;793.60
70151;DHT22;57517;43.562;19.540;2024-03-29T12:58:15;691.80;768.00
70151;DHT22;57517;43.562;19.540;2024-03-29T13:00:42;691.70;793.60
70151;DHT22;57517;43.562;19.540;2024-03-29T13:03:08;691.80;793.60
70151;DHT22;57517;43.562;19.540;2024-03-29T13:05:35;691.60;768.00
70151;DHT22;57517;43.562;19.540;2024-03-29T13:08:07;691.70;768.00
70151;DHT22;57517;43.562;19.540;2024-03-29T13:10:34;691.70;768.00
70151;DHT22;57517;43.562;19.540;2024-03-29T13:13:00;691.40;793.60
70151;DHT22;57517;43.562;19.540;2024-03-29T13:15:27;691.40;768.00
70151;DHT22;57517;43.562;19.540;2024-03-29T13:17:54;691.20;793.60
70151;DHT22;57517;43.562;19.540;2024-03-29T13:20:21;666.40;819.20
70151;DHT22;57517;43.562;19.540;2024-03-29T13:22:48;666.20;819.20
70151;DHT22;57517;43.562;19.540;2024-03-29T13:25:16;666.10;844.80
70151;DHT22;57517;43.562;19.540;2024-03-29T13:27:43;666.20;819.20
70151;DHT22;57517;43.562;19.540;2024-03-29T13:30:11;666.20;819.20
70151;DHT22;57517;43.562;19.540;2024-03-29T13:32:39;666.10;844.80
70151;DHT22;57517;43.562;19.540;2024-03-29T13:35:08;666.30;819.20
70151;DHT22;57517;43.562;19.540;2024-03-29T13:37:41;666.30;844.80
70151;DHT22;57517;43.562;19.540;2024-03-29T13:40:09;666.40;819.20
70151;DHT22;57517;43.562;19.540;2024-03-29T13:42:38;666.50;819.20
70151;DHT22;57517;43.562;19.540;2024-03-29T13:45:05;666.30;844.80
70151;DHT22;57517;43.562;19.540;2024-03-29T13:47:35;666.40;844.80
70151;DHT22;57517;43.562;19.540;2024-03-29T13:50:02;666.40;844.80
70151;DHT22;57517;43.562;19.540;2024-03-29T13:52:27;666.30;844.80
70151;DHT22;57517;43.562;19.540;2024-03-29T13:54:53;666.50;819.20
70151;DHT22;57517;43.562;19.540;2024-03-29T13:57:19;691.20;819.20
70151;DHT22;57517;43.562;19.540;2024-03-29T13:59:46;691.20;819.20
70151;DHT22;57517;43.562;19.540;2024-03-29T14:02:13;691.20;819.20
70151;DHT22;57517;43.562;19.540;2024-03-29T14:04:40;691.20;844.80
70151;DHT22;57517;43.562;19.540;2024-03-29T14:07:07;666.40;819.20
70151;DHT22;57517;43.562;19.540;2024-03-29T14:09:34;666.40;844.80
70151;DHT22;57517;43.562;19.540;2024-03-29T14:12:00;666.40;819.20
70151;DHT22;57517;43.562;19.540;2024-03-29T14:14:27;666.20;844.80
70151;DHT22;57517;43.562;19.540;2024-03-29T14:16:53;666.30;844.80
70151;DHT22;57517;43.562;19.540;2024-03-29T14:19:19;666.40;870.40
70151;DHT22;57517;43.562;19.540;2024-03-29T14:21:45;666.40;844.80
70151;DHT22;57517;43.562;19.540;2024-03-29T14:24:11;666.40;819.20
70151;DHT22;57517;43.562;19.540;2024-03-29T14:26:36;691.20;870.40
70151;DHT22;57517;43.562;19.540;2024-03-29T14:29:04;691.20;870.40
70151;DHT22;57517;43.562;19.540;2024-03-29T14:31:32;691.20;819.20
70151;DHT22;57517;43.562;19.540;2024-03-29T14:33:58;666.50;844.80
70151;DHT22;57517;43.562;19.540;2024-03-29T14:36:24;666.40;844.80
70151;DHT22;57517;43.562;19.540;2024-03-29T14:38:50;666.30;870.40
70151;DHT22;57517;43.562;19.540;2024-03-29T14:41:16;666.20;844.80
70151;DHT22;57517;43.562;19.540;2024-03-29T14:43:41;666.00;844.80
70151;DHT22;57517;43.562;19.540;2024-03-29T14:46:09;666.00;870.40
70151;DHT22;57517;43.562;19.540;2024-03-29T14:48:35;666.00;870.40
70151;DHT22;57517;43.562;19.540;2024-03-29T14:51:01;666.00;844.80
70151;DHT22;57517;43.562;19.540;2024-03-29T14:53:27;666.10;870.40
70151;DHT22;57517;43.562;19.540;2024-03-29T14:55:52;666.30;844.80
70151;DHT22;57517;43.562;19.540;2024-03-29T14:58:18;666.30;844.80
70151;DHT22;57517;43.562;19.540;2024-03-29T15:00:45;666.20;870.40
70151;DHT22;57517;43.562;19.540;2024-03-29T15:03:12;666.10;870.40
70151;DHT22;57517;43.562;19.540;2024-03-29T15:05:38;666.20;870.40
70151;DHT22;57517;43.562;19.540;2024-03-29T15:08:04;666.10;844.80
70151;DHT22;57517;43.562;19.540;2024-03-29T15:10:30;666.10;844.80
70151;DHT22;57517;43.562;19.540;2024-03-29T15:12:57;666.20;844.80
70151;DHT22;57517;43.562;19.540;2024-03-29T15:15:23;666.10;844.80
70151;DHT22;57517;43.562;19.540;2024-03-29T15:17:49;666.10;870.40
70151;DHT22;57517;43.562;19.540;2024-03-29T15:20:15;666.00;870.40
70151;DHT22;57517;43.562;19.540;2024-03-29T15:22:42;666.00;870.40
70151;DHT22;57517;43.562;19.540;2024-03-29T15:25:16;666.10;870.40
70151;DHT22;57517;43.562;19.540;2024-03-29T15:27:42;666.00;870.40
70151;DHT22;57517;43.562;19.540;2024-03-29T15:30:27;666.00;870.40
70151;DHT22;57517;43.562;19.540;2024-03-29T15:32:53;666.10;896.00
70151;DHT22;57517;43.562;19.540;2024-03-29T15:35:19;666.20;896.00
70151;DHT22;57517;43.562;19.540;2024-03-29T15:37:45;666.20;896.00
70151;DHT22;57517;43.562;19.540;2024-03-29T15:40:12;666.20;870.40
70151;DHT22;57517;43.562;19.540;2024-03-29T15:42:38;666.20;947.20
70151;DHT22;57517;43.562;19.540;2024-03-29T15:45:06;666.10;947.20
70151;DHT22;57517;43.562;19.540;2024-03-29T15:47:32;666.20;947.20
70151;DHT22;57517;43.562;19.540;2024-03-29T15:49:59;666.10;921.60
70151;DHT22;57517;43.562;19.540;2024-03-29T15:52:25;666.10;921.60
70151;DHT22;57517;43.562;19.540;2024-03-29T15:54:51;666.10;947.20
70151;DHT22;57517;43.562;19.540;2024-03-29T15:57:19;665.90;921.60
70151;DHT22;57517;43.562;19.540;2024-03-29T15:59:45;666.00;921.60
70151;DHT22;57517;43.562;19.540;2024-03-29T16:02:14;665.90;972.80
70151;DHT22;57517;43.562;19.540;2024-03-29T16:04:40;666.00;972.80
70151;DHT22;57517;43.562;19.540;2024-03-29T16:07:09;665.90;972.80
70151;DHT22;57517;43.562;19.540;2024-03-29T16:09:34;665.90;972.80
70151;DHT22;57517;43.562;19.540;2024-03-29T16:12:00;665.80;972.80
70151;DHT22;57517;43.562;19.540;2024-03-29T16:14:26;665.80;972.80
70151;DHT22;57517;43.562;19.540;2024-03-29T16:16:54;665.70;998.40
70151;DHT22;57517;43.562;19.540;2024-03-29T16:19:20;665.70;1024.00
70151;DHT22;57517;43.562;19.540;2024-03-29T16:21:45;665.70;998.40
70151;DHT22;57517;43.562;19.540;2024-03-29T16:24:11;665.70;1024.00
70151;DHT22;57517;43.562;19.540;2024-03-29T16:26:37;640.90;998.40
70151;DHT22;57517;43.562;19.540;2024-03-29T16:29:03;640.80;1024.00
70151;DHT22;57517;43.562;19.540;2024-03-29T16:31:33;640.70;1024.00
70151;DHT22;57517;43.562;19.540;2024-03-29T16:33:59;640.70;1049.60